createdAt,value
2023-10-17T00:01:42.420Z,101085.41
2023-10-17T00:05:10.206Z,101079.59
2023-10-17T00:08:38.003Z,101082.17
2023-10-17T00:11:41.642Z,101082.11
2023-10-17T00:14:50.777Z,101079.66
2023-10-17T00:17:59.618Z,101078.08
2023-10-17T00:21:27.253Z,101073.23
2023-10-17T00:24:54.940Z,101076.79
2023-10-17T00:28:23.110Z,101073.70
2023-10-17T00:31:50.896Z,101074.56
2023-10-17T00:35:00.591Z,101075.21
2023-10-17T00:38:28.397Z,101069.16
2023-10-17T00:41:56.359Z,101068.36
2023-10-17T00:45:05.990Z,101065.30
2023-10-17T00:48:15.893Z,101057.02
2023-10-17T00:51:43.813Z,101052.26
2023-10-17T00:55:11.569Z,101055.40
2023-10-17T00:58:20.005Z,101050.72
2023-10-17T01:01:48.084Z,101052.47
2023-10-17T01:05:15.804Z,101045.70
2023-10-17T01:08:43.593Z,101052.44
2023-10-17T01:12:11.314Z,101042.84
2023-10-17T01:15:38.971Z,101042.64
2023-10-17T01:18:50.872Z,101042.42
2023-10-17T01:22:19.714Z,101045.02
2023-10-17T01:25:49.223Z,101045.20
2023-10-17T01:28:40.053Z,101039.53
2023-10-17T01:31:48.747Z,101039.17
2023-10-17T01:34:42.301Z,101036.77
2023-10-17T01:37:40.200Z,101042.15
2023-10-17T01:41:07.836Z,101038.86
2023-10-17T01:44:35.522Z,101037.45
2023-10-17T01:48:03.271Z,101038.24
2023-10-17T01:51:30.920Z,101029.00
2023-10-17T01:54:58.657Z,101033.47
2023-10-17T01:58:26.389Z,101030.18
2023-10-17T02:01:42.418Z,101038.39
2023-10-17T02:04:49.006Z,101036.80
2023-10-17T02:07:57.788Z,101037.08
2023-10-17T02:11:25.529Z,101036.89
2023-10-17T02:14:53.264Z,101034.77
2023-10-17T02:18:21.050Z,101033.44
2023-10-17T02:21:48.895Z,101035.67
2023-10-17T02:24:57.455Z,101027.91
2023-10-17T02:28:25.441Z,101034.34
2023-10-17T02:31:53.366Z,101036.08
2023-10-17T02:35:21.186Z,101046.16
2023-10-17T02:38:49.388Z,101036.58
2023-10-17T02:42:17.110Z,101037.95
2023-10-17T02:45:44.800Z,101037.48
2023-10-17T02:49:12.585Z,101036.98
2023-10-17T02:52:40.232Z,101039.32
2023-10-17T02:56:07.920Z,101041.94
2023-10-17T02:59:17.313Z,101041.19
2023-10-17T03:02:45.040Z,101046.17
2023-10-17T03:05:56.780Z,101048.66
2023-10-17T03:09:24.747Z,101044.95
2023-10-17T03:12:52.063Z,101049.02
2023-10-17T03:16:20.110Z,101047.55
2023-10-17T03:19:43.941Z,101044.33
2023-10-17T03:23:11.996Z,101042.04
2023-10-17T03:26:42.950Z,101044.61
2023-10-17T03:29:20.921Z,101044.95
2023-10-17T03:32:48.585Z,101050.62
2023-10-17T03:36:00.165Z,101051.47
2023-10-17T03:39:28.055Z,101047.04
2023-10-17T03:42:17.260Z,101044.48
2023-10-17T03:45:06.888Z,101036.91
2023-10-17T03:48:15.734Z,101033.29
2023-10-17T03:51:24.594Z,101031.58
2023-10-17T03:54:52.290Z,101031.38
2023-10-17T03:58:20.319Z,101027.73
2023-10-17T04:01:47.993Z,101027.02
2023-10-17T04:05:16.005Z,101020.84
2023-10-17T04:08:02.062Z,101020.98
2023-10-17T04:11:30.070Z,101020.19
2023-10-17T04:14:57.731Z,101016.33
2023-10-17T04:18:06.464Z,101012.70
2023-10-17T04:21:34.086Z,101012.72
2023-10-17T04:25:02.778Z,101016.50
2023-10-17T04:27:31.410Z,101016.19
2023-10-17T04:30:59.208Z,101020.45
2023-10-17T04:33:30.355Z,101023.33
2023-10-17T04:36:45.675Z,101030.81
2023-10-17T04:39:54.605Z,101031.13
2023-10-17T04:43:22.413Z,101034.39
2023-10-17T04:46:50.491Z,101037.91
2023-10-17T04:50:18.199Z,101039.16
2023-10-17T04:53:07.510Z,101034.63
2023-10-17T04:56:35.179Z,101041.16
2023-10-17T05:00:03.003Z,101042.05
2023-10-17T05:03:30.845Z,101043.20
2023-10-17T05:06:58.384Z,101047.34
2023-10-17T05:10:26.345Z,101049.95
2023-10-17T05:13:54.005Z,101052.11
2023-10-17T05:17:21.922Z,101052.05
2023-10-17T05:20:49.583Z,101050.59
2023-10-17T05:24:17.487Z,101044.21
2023-10-17T05:27:25.776Z,101045.77
2023-10-17T05:30:33.966Z,101044.25
2023-10-17T05:33:42.039Z,101051.37
2023-10-17T05:37:09.663Z,101057.92
2023-10-17T05:39:59.328Z,101061.52
2023-10-17T05:43:07.467Z,101062.91
2023-10-17T05:46:35.163Z,101069.14
2023-10-17T05:50:02.908Z,101068.02
2023-10-17T05:53:30.776Z,101072.56
2023-10-17T05:56:58.565Z,101075.77
2023-10-17T06:00:26.415Z,101073.88
2023-10-17T06:03:34.709Z,101070.36
2023-10-17T06:07:03.568Z,101073.42
2023-10-17T06:10:30.204Z,101071.65
2023-10-17T06:13:57.931Z,101074.21
2023-10-17T06:17:25.762Z,101072.13
2023-10-17T06:20:53.922Z,101073.89
2023-10-17T06:24:22.001Z,101076.52
2023-10-17T06:27:49.846Z,101073.52
2023-10-17T06:30:58.684Z,101073.91
2023-10-17T06:34:26.308Z,101079.19
2023-10-17T06:37:35.745Z,101079.81
2023-10-17T06:41:03.566Z,101076.63
2023-10-17T06:44:31.411Z,101074.40
2023-10-17T06:47:59.165Z,101077.16
2023-10-17T06:51:26.979Z,101084.16
2023-10-17T06:54:54.571Z,101082.71
2023-10-17T06:58:24.804Z,101079.33
2023-10-17T07:01:50.306Z,101073.89
2023-10-17T07:04:39.584Z,101076.73
2023-10-17T07:08:07.258Z,101074.33
2023-10-17T07:11:35.020Z,101074.69
2023-10-17T07:15:03.233Z,101076.50
2023-10-17T07:18:31.090Z,101077.43
2023-10-17T07:21:58.746Z,101080.19
2023-10-17T07:25:26.348Z,101077.63
2023-10-17T07:28:34.638Z,101074.14
2023-10-17T07:32:06.888Z,101074.30
2023-10-17T07:35:35.979Z,101068.29
2023-10-17T07:39:03.687Z,101071.17
2023-10-17T07:42:31.636Z,101078.39
2023-10-17T07:45:21.589Z,101080.13
2023-10-17T07:48:30.445Z,101083.67
2023-10-17T07:51:58.364Z,101076.67
2023-10-17T07:55:26.315Z,101067.21
2023-10-17T07:58:53.992Z,101070.87
2023-10-17T08:02:22.017Z,101068.81
2023-10-17T08:05:49.644Z,101068.55
2023-10-17T08:08:59.554Z,101064.92
2023-10-17T08:12:27.380Z,101065.23
2023-10-17T08:15:55.457Z,101069.00
2023-10-17T08:19:23.341Z,101069.98
2023-10-17T08:22:12.452Z,101070.48
2023-10-17T08:25:40.169Z,101070.73
2023-10-17T08:29:08.049Z,101067.10
2023-10-17T08:32:35.969Z,101075.59
2023-10-17T08:36:03.759Z,101086.70
2023-10-17T08:39:12.659Z,101088.52
2023-10-17T08:42:40.826Z,101083.69
2023-10-17T08:46:08.548Z,101075.23
2023-10-17T08:49:36.501Z,101081.06
2023-10-17T08:53:04.312Z,101086.30
2023-10-17T08:56:32.029Z,101086.33
2023-10-17T08:59:41.085Z,101086.48
2023-10-17T09:03:08.991Z,101080.92
2023-10-17T09:06:36.928Z,101089.34
2023-10-17T09:10:04.741Z,101082.81
2023-10-17T09:13:32.590Z,101083.79
2023-10-17T09:17:00.235Z,101079.80
2023-10-17T09:20:28.095Z,101078.38
2023-10-17T09:23:36.798Z,101078.70
2023-10-17T09:27:04.659Z,101081.11
2023-10-17T09:30:32.440Z,101074.98
2023-10-17T09:34:00.271Z,101069.35
2023-10-17T09:37:09.714Z,101064.60
2023-10-17T09:40:43.345Z,101062.20
2023-10-17T09:44:05.299Z,101060.63
2023-10-17T09:46:53.723Z,101053.54
2023-10-17T09:50:21.623Z,101046.78
2023-10-17T09:53:30.181Z,101038.70
2023-10-17T09:56:19.847Z,101035.17
2023-10-17T09:59:48.009Z,101028.86
2023-10-17T10:03:16.188Z,101028.64
2023-10-17T10:06:43.833Z,101030.55
2023-10-17T10:09:52.688Z,101029.89
2023-10-17T10:13:20.590Z,101027.55
2023-10-17T10:16:48.563Z,101028.33
2023-10-17T10:19:57.519Z,101025.23
2023-10-17T10:23:29.246Z,101016.40
2023-10-17T10:26:53.085Z,101010.45
2023-10-17T10:30:20.835Z,101002.71
2023-10-17T10:33:48.812Z,101002.39
2023-10-17T10:37:16.901Z,101000.75
2023-10-17T10:40:47.013Z,100991.20
2023-10-17T10:43:55.343Z,100986.36
2023-10-17T10:47:23.356Z,100982.30
2023-10-17T10:50:32.348Z,100975.27
2023-10-17T10:54:00.307Z,100972.11
2023-10-17T10:57:09.184Z,100973.48
2023-10-17T11:00:17.940Z,100966.31
2023-10-17T11:03:21.215Z,100963.29
2023-10-17T11:06:29.985Z,100956.47
2023-10-17T11:09:57.644Z,100952.04
2023-10-17T11:13:25.391Z,100950.12
2023-10-17T11:16:53.841Z,100946.34
2023-10-17T11:20:02.771Z,100951.00
2023-10-17T11:23:11.599Z,100947.13
2023-10-17T11:26:28.299Z,100941.91
2023-10-17T11:29:28.999Z,100940.66
2023-10-17T11:32:57.170Z,100941.02
2023-10-17T11:36:25.429Z,100934.95
2023-10-17T11:39:53.758Z,100934.65
2023-10-17T11:43:21.579Z,100933.63
2023-10-17T11:46:30.766Z,100921.73
2023-10-17T11:49:38.878Z,100920.06
2023-10-17T11:52:47.713Z,100910.70
2023-10-17T11:55:52.149Z,100909.98
2023-10-17T11:58:59.847Z,100901.14
2023-10-17T12:01:30.262Z,100897.03
2023-10-17T12:04:58.455Z,100889.73
2023-10-17T12:08:02.277Z,100884.84
2023-10-17T12:10:50.631Z,100883.69
2023-10-17T12:13:56.049Z,100878.98
2023-10-17T12:17:23.791Z,100875.59
2023-10-17T12:20:28.093Z,100872.00
2023-10-17T12:23:38.037Z,100873.98
2023-10-17T12:26:46.331Z,100872.00
2023-10-17T12:30:14.089Z,100870.39
2023-10-17T12:33:41.835Z,100866.09
2023-10-17T12:36:50.005Z,100863.69
2023-10-17T12:39:57.801Z,100864.31
2023-10-17T12:42:46.582Z,100863.00
2023-10-17T12:45:54.746Z,100860.34
2023-10-17T12:49:18.034Z,100861.58
2023-10-17T12:52:22.354Z,100862.64
2023-10-17T12:55:45.505Z,100858.45
2023-10-17T12:58:55.340Z,100861.34
2023-10-17T13:01:46.296Z,100861.05
2023-10-17T13:04:35.852Z,100854.39
2023-10-17T13:07:25.259Z,100853.61
2023-10-17T13:10:52.922Z,100848.34
2023-10-17T13:14:01.920Z,100843.46
2023-10-17T13:17:29.952Z,100843.77
2023-10-17T13:20:35.813Z,100848.56
2023-10-17T13:23:49.606Z,100848.11
2023-10-17T13:27:05.920Z,100841.77
2023-10-17T13:30:26.151Z,100836.67
2023-10-17T13:33:38.337Z,100835.38
2023-10-17T13:36:37.389Z,100833.13
2023-10-17T13:39:52.713Z,100826.83
2023-10-17T13:42:46.253Z,100828.48
2023-10-17T13:45:41.760Z,100824.98
2023-10-17T13:48:31.128Z,100826.00
2023-10-17T13:51:58.890Z,100822.80
2023-10-17T13:54:46.330Z,100822.84
2023-10-17T13:57:22.801Z,100826.63
2023-10-17T14:00:16.436Z,100823.66
2023-10-17T14:03:25.822Z,100821.30
2023-10-17T14:06:14.853Z,100816.33
2023-10-17T14:09:22.970Z,100813.18
2023-10-17T14:12:45.919Z,100814.42
2023-10-17T14:15:54.790Z,100813.67
2023-10-17T14:19:17.584Z,100809.42
2023-10-17T14:22:14.714Z,100808.64
2023-10-17T14:25:18.637Z,100803.63
2023-10-17T14:28:42.043Z,100799.40
2023-10-17T14:32:09.941Z,100801.45
2023-10-17T14:34:59.765Z,100797.77
2023-10-17T14:38:29.360Z,100791.36
2023-10-17T14:41:39.413Z,100791.90
2023-10-17T14:45:08.257Z,100787.02
2023-10-17T14:48:36.502Z,100788.48
2023-10-17T14:52:04.501Z,100789.14
2023-10-17T14:54:55.792Z,100788.75
2023-10-17T14:58:05.436Z,100790.25
2023-10-17T15:01:17.113Z,100782.41
2023-10-17T15:04:37.175Z,100788.29
2023-10-17T15:08:05.350Z,100785.37
2023-10-17T15:11:33.361Z,100788.86
2023-10-17T15:15:01.460Z,100788.40
2023-10-17T15:17:59.318Z,100787.55
2023-10-17T15:20:29.044Z,100786.88
2023-10-17T15:23:56.796Z,100783.23
2023-10-17T15:27:25.167Z,100785.84
2023-10-17T15:30:53.052Z,100786.48
2023-10-17T15:34:00.901Z,100786.80
2023-10-17T15:37:16.805Z,100789.95
2023-10-17T15:40:25.697Z,100794.05
2023-10-17T15:43:53.387Z,100796.14
2023-10-17T15:47:16.683Z,100795.15
2023-10-17T15:50:44.373Z,100802.09
2023-10-17T15:54:12.216Z,100798.55
2023-10-17T15:57:39.882Z,100801.67
2023-10-17T16:00:48.688Z,100800.06
2023-10-17T16:03:58.005Z,100797.84
2023-10-17T16:07:05.945Z,100796.92
2023-10-17T16:10:15.754Z,100796.34
2023-10-17T16:13:07.504Z,100801.42
2023-10-17T16:16:17.601Z,100806.32
2023-10-17T16:19:25.552Z,100808.94
2023-10-17T16:22:53.718Z,100812.90
2023-10-17T16:26:21.442Z,100813.16
2023-10-17T16:29:10.422Z,100814.66
2023-10-17T16:32:18.283Z,100818.63
2023-10-17T16:35:26.613Z,100819.64
2023-10-17T16:38:16.754Z,100821.34
2023-10-17T16:41:44.667Z,100823.11
2023-10-17T16:44:42.048Z,100821.86
2023-10-17T16:48:09.638Z,100822.48
2023-10-17T16:51:37.574Z,100824.90
2023-10-17T16:54:25.648Z,100828.43
2023-10-17T16:57:56.711Z,100829.36
2023-10-17T17:00:46.311Z,100830.95
2023-10-17T17:03:54.901Z,100831.18
2023-10-17T17:07:22.709Z,100831.06
2023-10-17T17:10:34.524Z,100831.72
2023-10-17T17:13:44.340Z,100831.36
2023-10-17T17:17:15.852Z,100828.65
2023-10-17T17:20:24.568Z,100830.92
2023-10-17T17:23:34.551Z,100831.96
2023-10-17T17:26:46.032Z,100828.52
2023-10-17T17:30:02.013Z,100826.74
2023-10-17T17:33:16.118Z,100832.86
2023-10-17T17:36:31.475Z,100830.77
2023-10-17T17:39:46.711Z,100831.98
2023-10-17T17:43:14.316Z,100834.00
2023-10-17T17:46:38.093Z,100837.81
2023-10-17T17:49:28.589Z,100843.98
2023-10-17T17:52:56.028Z,100839.42
2023-10-17T17:56:24.125Z,100839.73
2023-10-17T17:59:40.163Z,100837.89
2023-10-17T18:03:10.612Z,100839.59
2023-10-17T18:06:42.471Z,100842.76
2023-10-17T18:09:52.342Z,100845.92
2023-10-17T18:12:56.356Z,100842.80
2023-10-17T18:15:46.150Z,100840.19
2023-10-17T18:18:43.108Z,100848.09
2023-10-17T18:22:14.103Z,100852.28
2023-10-17T18:25:23.057Z,100853.89
2023-10-17T18:28:31.984Z,100853.90
2023-10-17T18:31:30.948Z,100852.80
2023-10-17T18:34:20.598Z,100851.16
2023-10-17T18:37:11.536Z,100851.40
2023-10-17T18:40:39.393Z,100852.69
2023-10-17T18:43:51.387Z,100850.38
2023-10-17T18:47:19.162Z,100856.39
2023-10-17T18:50:28.000Z,100862.34
2023-10-17T18:53:51.709Z,100857.53
2023-10-17T18:57:19.593Z,100858.91
2023-10-17T19:00:43.355Z,100858.42
2023-10-17T19:03:57.746Z,100862.45
2023-10-17T19:07:08.829Z,100863.67
2023-10-17T19:10:39.275Z,100860.64
2023-10-17T19:13:57.171Z,100863.40
2023-10-17T19:17:07.373Z,100862.55
2023-10-17T19:19:45.984Z,100859.84
2023-10-17T19:22:57.634Z,100857.45
2023-10-17T19:26:13.216Z,100860.73
2023-10-17T19:29:23.164Z,100861.63
2023-10-17T19:32:47.197Z,100860.54
2023-10-17T19:35:44.318Z,100857.27
2023-10-17T19:39:11.999Z,100859.77
2023-10-17T19:42:39.955Z,100859.10
2023-10-17T19:46:07.731Z,100860.80
2023-10-17T19:49:36.054Z,100865.56
2023-10-17T19:53:03.903Z,100863.55
2023-10-17T19:56:09.781Z,100862.23
2023-10-17T19:59:37.520Z,100852.20
2023-10-17T20:02:47.667Z,100853.02
2023-10-17T20:05:56.301Z,100854.64
2023-10-17T20:09:23.942Z,100853.09
2023-10-17T20:12:13.386Z,100849.81
2023-10-17T20:15:41.115Z,100852.18
2023-10-17T20:18:30.972Z,100850.08
2023-10-17T20:21:43.420Z,100847.84
2023-10-17T20:24:52.124Z,100849.78
2023-10-17T20:27:57.042Z,100852.80
2023-10-17T20:31:26.413Z,100855.22
2023-10-17T20:34:27.100Z,100853.54
2023-10-17T20:37:04.197Z,100855.91
2023-10-17T20:40:14.656Z,100853.93
2023-10-17T20:42:49.227Z,100848.16
2023-10-17T20:45:58.857Z,100848.64
2023-10-17T20:48:28.466Z,100845.73
2023-10-17T20:51:38.493Z,100850.27
2023-10-17T20:54:50.176Z,100849.23
2023-10-17T20:57:39.565Z,100845.44
2023-10-17T21:01:07.270Z,100844.14
2023-10-17T21:04:35.207Z,100845.22
2023-10-17T21:07:58.750Z,100845.67
2023-10-17T21:11:08.582Z,100849.27
2023-10-17T21:14:20.891Z,100853.50
2023-10-17T21:17:28.502Z,100854.10
2023-10-17T21:20:53.585Z,100847.33
2023-10-17T21:23:57.833Z,100841.37
2023-10-17T21:27:09.383Z,100833.70
2023-10-17T21:30:18.076Z,100827.27
2023-10-17T21:33:45.905Z,100825.36
2023-10-17T21:37:13.588Z,100819.98
2023-10-17T21:39:46.819Z,100818.11
2023-10-17T21:42:51.763Z,100818.34
2023-10-17T21:46:19.499Z,100818.40
2023-10-17T21:49:47.309Z,100821.48
2023-10-17T21:52:57.202Z,100821.21
2023-10-17T21:55:48.085Z,100821.92
2023-10-17T21:58:39.115Z,100824.64
2023-10-17T22:01:42.412Z,100822.05
2023-10-17T22:05:10.186Z,100817.48
2023-10-17T22:08:37.945Z,100810.19
2023-10-17T22:12:05.591Z,100807.38
2023-10-17T22:15:33.321Z,100803.41
2023-10-17T22:19:00.966Z,100801.36
2023-10-17T22:22:09.715Z,100801.80
2023-10-17T22:25:37.429Z,100799.66
2023-10-17T22:29:05.586Z,100800.65
2023-10-17T22:31:54.957Z,100801.67
2023-10-17T22:34:48.594Z,100795.98
2023-10-17T22:38:12.171Z,100795.69
2023-10-17T22:41:28.469Z,100795.95
2023-10-17T22:44:37.362Z,100795.88
2023-10-17T22:47:47.151Z,100795.61
2023-10-17T22:51:14.894Z,100791.36
2023-10-17T22:54:22.038Z,100780.86
2023-10-17T22:57:49.870Z,100782.63
2023-10-17T23:01:17.796Z,100784.08
2023-10-17T23:04:45.552Z,100787.52
2023-10-17T23:08:13.367Z,100786.98
2023-10-17T23:11:41.246Z,100782.55
2023-10-17T23:15:09.253Z,100779.46
2023-10-17T23:17:58.089Z,100771.50
2023-10-17T23:21:06.192Z,100766.27
2023-10-17T23:24:34.124Z,100774.87
2023-10-17T23:28:02.094Z,100774.14
2023-10-17T23:31:29.970Z,100777.82
2023-10-17T23:34:57.754Z,100775.57
2023-10-17T23:38:04.457Z,100775.05
2023-10-17T23:41:14.084Z,100776.68
2023-10-17T23:44:04.958Z,100780.42
2023-10-17T23:47:33.727Z,100785.35
2023-10-17T23:51:01.504Z,100787.61
2023-10-17T23:53:46.417Z,100787.32
2023-10-17T23:56:38.976Z,100789.30
2023-10-17T23:59:44.392Z,100781.70
